sensor_id;sensor_type;location;lat;lon;timestamp;temperature;humidity
49777;DHT22;35673;51.482;7.436;2022-08-21T00:01:25;19.20;99.90
49777;DHT22;35673;51.482;7.436;2022-08-21T00:03:53;19.20;99.90
49777;DHT22;35673;51.482;7.436;2022-08-21T00:06:20;19.20;99.90
49777;DHT22;35673;51.482;7.436;2022-08-21T00:08:46;19.10;99.90
49777;DHT22;35673;51.482;7.436;2022-08-21T00:11:12;19.20;99.90
49777;DHT22;35673;51.482;7.436;2022-08-21T00:13:38;19.20;99.90
49777;DHT22;35673;51.482;7.436;2022-08-21T00:16:04;19.10;99.90
49777;DHT22;35673;51.482;7.436;2022-08-21T00:18:30;19.10;99.90
49777;DHT22;35673;51.482;7.436;2022-08-21T00:20:56;19.10;99.90
49777;DHT22;35673;51.482;7.436;2022-08-21T00:23:22;19.10;99.90
49777;DHT22;35673;51.482;7.436;2022-08-21T00:25:48;19.10;99.90
49777;DHT22;35673;51.482;7.436;2022-08-21T00:28:14;19.20;99.90
49777;DHT22;35673;51.482;7.436;2022-08-21T00:30:40;19.20;99.90
49777;DHT22;35673;51.482;7.436;2022-08-21T00:33:06;19.20;99.90
49777;DHT22;35673;51.482;7.436;2022-08-21T00:35:35;19.10;99.90
49777;DHT22;35673;51.482;7.436;2022-08-21T00:38:02;19.10;99.90
49777;DHT22;35673;51.482;7.436;2022-08-21T00:40:36;19.10;99.90
49777;DHT22;35673;51.482;7.436;2022-08-21T00:43:07;19.10;99.90
49777;DHT22;35673;51.482;7.436;2022-08-21T00:45:33;19.10;99.90
49777;DHT22;35673;51.482;7.436;2022-08-21T00:47:59;19.00;99.90
49777;DHT22;35673;51.482;7.436;2022-08-21T00:50:28;19.10;99.90
49777;DHT22;35673;51.482;7.436;2022-08-21T00:52:54;19.00;99.90
49777;DHT22;35673;51.482;7.436;2022-08-21T00:55:22;18.90;99.90
49777;DHT22;35673;51.482;7.436;2022-08-21T00:57:56;18.80;99.90
49777;DHT22;35673;51.482;7.436;2022-08-21T01:00:27;18.80;99.90
49777;DHT22;35673;51.482;7.436;2022-08-21T01:02:55;18.80;99.90
49777;DHT22;35673;51.482;7.436;2022-08-21T01:05:20;18.70;99.90
49777;DHT22;35673;51.482;7.436;2022-08-21T01:07:46;18.70;99.90
49777;DHT22;35673;51.482;7.436;2022-08-21T01:10:12;18.60;99.90
49777;DHT22;35673;51.482;7.436;2022-08-21T01:12:39;18.60;99.90
49777;DHT22;35673;51.482;7.436;2022-08-21T01:15:06;18.60;99.90
49777;DHT22;35673;51.482;7.436;2022-08-21T01:17:33;18.60;99.90
49777;DHT22;35673;51.482;7.436;2022-08-21T01:20:00;18.60;99.90
49777;DHT22;35673;51.482;7.436;2022-08-21T01:22:27;18.40;99.90
49777;DHT22;35673;51.482;7.436;2022-08-21T01:24:52;18.40;99.90
49777;DHT22;35673;51.482;7.436;2022-08-21T01:27:18;18.30;99.90
49777;DHT22;35673;51.482;7.436;2022-08-21T01:32:31;18.50;99.90
49777;DHT22;35673;51.482;7.436;2022-08-21T01:34:56;18.60;99.90
49777;DHT22;35673;51.482;7.436;2022-08-21T01:37:22;18.60;99.90
49777;DHT22;35673;51.482;7.436;2022-08-21T01:39:48;18.60;99.90
49777;DHT22;35673;51.482;7.436;2022-08-21T01:42:14;18.70;99.90
49777;DHT22;35673;51.482;7.436;2022-08-21T01:44:41;18.80;99.90
49777;DHT22;35673;51.482;7.436;2022-08-21T01:47:08;18.80;99.90
49777;DHT22;35673;51.482;7.436;2022-08-21T01:49:36;18.80;99.90
49777;DHT22;35673;51.482;7.436;2022-08-21T01:52:02;18.80;99.90
49777;DHT22;35673;51.482;7.436;2022-08-21T01:54:29;18.70;99.90
49777;DHT22;35673;51.482;7.436;2022-08-21T01:56:54;18.70;99.90
49777;DHT22;35673;51.482;7.436;2022-08-21T01:59:22;18.60;99.90
49777;DHT22;35673;51.482;7.436;2022-08-21T02:01:48;18.60;99.90
49777;DHT22;35673;51.482;7.436;2022-08-21T02:04:14;18.60;99.90
49777;DHT22;35673;51.482;7.436;2022-08-21T02:06:40;18.50;99.90
49777;DHT22;35673;51.482;7.436;2022-08-21T02:09:07;18.50;99.90
49777;DHT22;35673;51.482;7.436;2022-08-21T02:11:34;18.50;99.90
49777;DHT22;35673;51.482;7.436;2022-08-21T02:14:01;18.40;99.90
49777;DHT22;35673;51.482;7.436;2022-08-21T02:16:27;18.40;99.90
49777;DHT22;35673;51.482;7.436;2022-08-21T02:18:53;18.40;99.90
49777;DHT22;35673;51.482;7.436;2022-08-21T02:21:18;18.40;99.90
49777;DHT22;35673;51.482;7.436;2022-08-21T02:23:44;18.30;99.90
49777;DHT22;35673;51.482;7.436;2022-08-21T02:26:10;18.30;99.90
49777;DHT22;35673;51.482;7.436;2022-08-21T02:28:37;18.20;99.90
49777;DHT22;35673;51.482;7.436;2022-08-21T02:31:03;18.10;99.90
49777;DHT22;35673;51.482;7.436;2022-08-21T02:33:29;18.00;99.90
49777;DHT22;35673;51.482;7.436;2022-08-21T02:35:55;18.10;99.90
49777;DHT22;35673;51.482;7.436;2022-08-21T02:38:28;18.00;99.90
49777;DHT22;35673;51.482;7.436;2022-08-21T02:40:55;18.00;99.90
49777;DHT22;35673;51.482;7.436;2022-08-21T02:43:23;18.10;99.90
49777;DHT22;35673;51.482;7.436;2022-08-21T02:45:49;18.10;99.90
49777;DHT22;35673;51.482;7.436;2022-08-21T02:48:18;18.10;99.90
49777;DHT22;35673;51.482;7.436;2022-08-21T02:50:47;18.00;99.90
49777;DHT22;35673;51.482;7.436;2022-08-21T02:53:15;18.00;99.90
49777;DHT22;35673;51.482;7.436;2022-08-21T02:55:46;18.00;99.90
49777;DHT22;35673;51.482;7.436;2022-08-21T02:58:14;18.00;99.90
49777;DHT22;35673;51.482;7.436;2022-08-21T03:00:41;17.90;99.90
49777;DHT22;35673;51.482;7.436;2022-08-21T03:03:07;17.90;99.90
49777;DHT22;35673;51.482;7.436;2022-08-21T03:05:34;17.90;99.90
49777;DHT22;35673;51.482;7.436;2022-08-21T03:08:01;17.90;99.90
49777;DHT22;35673;51.482;7.436;2022-08-21T03:10:28;17.80;99.90
49777;DHT22;35673;51.482;7.436;2022-08-21T03:12:54;17.80;99.90
49777;DHT22;35673;51.482;7.436;2022-08-21T03:15:21;17.80;99.90
49777;DHT22;35673;51.482;7.436;2022-08-21T03:17:49;17.80;99.90
49777;DHT22;35673;51.482;7.436;2022-08-21T03:20:17;17.70;99.90
49777;DHT22;35673;51.482;7.436;2022-08-21T03:22:43;17.70;99.90
49777;DHT22;35673;51.482;7.436;2022-08-21T03:25:09;17.70;99.90
49777;DHT22;35673;51.482;7.436;2022-08-21T03:27:36;17.70;99.90
49777;DHT22;35673;51.482;7.436;2022-08-21T03:30:04;17.70;99.90
49777;DHT22;35673;51.482;7.436;2022-08-21T03:32:30;17.70;99.90
49777;DHT22;35673;51.482;7.436;2022-08-21T03:34:57;17.70;99.90
49777;DHT22;35673;51.482;7.436;2022-08-21T03:37:23;17.60;99.90
49777;DHT22;35673;51.482;7.436;2022-08-21T03:39:49;17.60;99.90
49777;DHT22;35673;51.482;7.436;2022-08-21T03:42:15;17.60;99.90
49777;DHT22;35673;51.482;7.436;2022-08-21T03:44:41;17.60;99.90
49777;DHT22;35673;51.482;7.436;2022-08-21T03:47:07;17.50;99.90
49777;DHT22;35673;51.482;7.436;2022-08-21T03:49:33;17.50;99.90
49777;DHT22;35673;51.482;7.436;2022-08-21T03:51:59;17.40;99.90
49777;DHT22;35673;51.482;7.436;2022-08-21T03:54:24;17.40;99.90
49777;DHT22;35673;51.482;7.436;2022-08-21T03:56:50;17.50;99.90
49777;DHT22;35673;51.482;7.436;2022-08-21T03:59:17;17.40;99.90
49777;DHT22;35673;51.482;7.436;2022-08-21T04:01:59;17.40;99.90
49777;DHT22;35673;51.482;7.436;2022-08-21T04:04:26;17.40;99.90
49777;DHT22;35673;51.482;7.436;2022-08-21T04:06:52;17.40;99.90
49777;DHT22;35673;51.482;7.436;2022-08-21T04:09:19;17.40;99.90
49777;DHT22;35673;51.482;7.436;2022-08-21T04:11:44;17.40;99.90
49777;DHT22;35673;51.482;7.436;2022-08-21T04:14:11;17.40;99.90
49777;DHT22;35673;51.482;7.436;2022-08-21T04:16:37;17.30;99.90
49777;DHT22;35673;51.482;7.436;2022-08-21T04:19:03;17.30;99.90
49777;DHT22;35673;51.482;7.436;2022-08-21T04:21:29;17.30;99.90
49777;DHT22;35673;51.482;7.436;2022-08-21T04:23:55;17.20;99.90
49777;DHT22;35673;51.482;7.436;2022-08-21T04:26:21;17.20;99.90
49777;DHT22;35673;51.482;7.436;2022-08-21T04:28:47;17.20;99.90
49777;DHT22;35673;51.482;7.436;2022-08-21T04:31:12;17.20;99.90
49777;DHT22;35673;51.482;7.436;2022-08-21T04:33:38;17.20;99.90
49777;DHT22;35673;51.482;7.436;2022-08-21T04:36:05;17.20;99.90
49777;DHT22;35673;51.482;7.436;2022-08-21T04:38:32;17.10;99.90
49777;DHT22;35673;51.482;7.436;2022-08-21T04:40:58;17.10;99.90
49777;DHT22;35673;51.482;7.436;2022-08-21T04:43:23;17.10;99.90
49777;DHT22;35673;51.482;7.436;2022-08-21T04:45:50;17.10;99.90
49777;DHT22;35673;51.482;7.436;2022-08-21T04:48:19;17.10;99.90
49777;DHT22;35673;51.482;7.436;2022-08-21T04:50:53;17.10;99.90
49777;DHT22;35673;51.482;7.436;2022-08-21T04:56:00;17.00;99.90
49777;DHT22;35673;51.482;7.436;2022-08-21T04:58:27;17.00;99.90
49777;DHT22;35673;51.482;7.436;2022-08-21T05:00:56;17.00;99.90
49777;DHT22;35673;51.482;7.436;2022-08-21T05:03:23;17.00;99.90
49777;DHT22;35673;51.482;7.436;2022-08-21T05:05:49;17.00;99.90
49777;DHT22;35673;51.482;7.436;2022-08-21T05:08:19;17.00;99.90
49777;DHT22;35673;51.482;7.436;2022-08-21T05:10:45;17.00;99.90
49777;DHT22;35673;51.482;7.436;2022-08-21T05:13:12;17.00;99.90
49777;DHT22;35673;51.482;7.436;2022-08-21T05:15:39;17.10;99.90
49777;DHT22;35673;51.482;7.436;2022-08-21T05:18:05;17.10;99.90
49777;DHT22;35673;51.482;7.436;2022-08-21T05:20:32;17.10;99.90
49777;DHT22;35673;51.482;7.436;2022-08-21T05:23:00;17.20;99.90
49777;DHT22;35673;51.482;7.436;2022-08-21T05:25:26;17.20;99.90
49777;DHT22;35673;51.482;7.436;2022-08-21T05:27:52;17.20;99.90
49777;DHT22;35673;51.482;7.436;2022-08-21T05:30:19;17.20;99.90
49777;DHT22;35673;51.482;7.436;2022-08-21T05:32:45;17.20;99.90
49777;DHT22;35673;51.482;7.436;2022-08-21T05:35:11;17.20;99.90
49777;DHT22;35673;51.482;7.436;2022-08-21T05:37:37;17.20;99.90
49777;DHT22;35673;51.482;7.436;2022-08-21T05:40:04;17.30;99.90
49777;DHT22;35673;51.482;7.436;2022-08-21T05:42:30;17.30;99.90
49777;DHT22;35673;51.482;7.436;2022-08-21T05:44:56;17.30;99.90
49777;DHT22;35673;51.482;7.436;2022-08-21T05:47:21;17.30;99.90
49777;DHT22;35673;51.482;7.436;2022-08-21T05:49:47;17.30;99.90
49777;DHT22;35673;51.482;7.436;2022-08-21T05:52:18;17.40;99.90
49777;DHT22;35673;51.482;7.436;2022-08-21T05:54:45;17.40;99.90
49777;DHT22;35673;51.482;7.436;2022-08-21T05:57:10;17.40;99.90
49777;DHT22;35673;51.482;7.436;2022-08-21T05:59:36;17.40;99.90
49777;DHT22;35673;51.482;7.436;2022-08-21T06:02:03;17.40;99.90
49777;DHT22;35673;51.482;7.436;2022-08-21T06:04:29;17.40;99.90
49777;DHT22;35673;51.482;7.436;2022-08-21T06:06:55;17.40;99.90
49777;DHT22;35673;51.482;7.436;2022-08-21T06:09:20;17.50;99.90
49777;DHT22;35673;51.482;7.436;2022-08-21T06:11:46;17.60;99.90
49777;DHT22;35673;51.482;7.436;2022-08-21T06:14:14;17.70;99.90
49777;DHT22;35673;51.482;7.436;2022-08-21T06:16:40;17.80;99.90
49777;DHT22;35673;51.482;7.436;2022-08-21T06:19:06;17.80;99.90
49777;DHT22;35673;51.482;7.436;2022-08-21T06:21:31;18.00;99.90
49777;DHT22;35673;51.482;7.436;2022-08-21T06:23:57;18.00;99.90
49777;DHT22;35673;51.482;7.436;2022-08-21T06:26:22;18.00;99.90
49777;DHT22;35673;51.482;7.436;2022-08-21T06:28:49;18.10;99.90
49777;DHT22;35673;51.482;7.436;2022-08-21T06:31:17;18.10;99.90
49777;DHT22;35673;51.482;7.436;2022-08-21T06:33:43;18.10;99.90
49777;DHT22;35673;51.482;7.436;2022-08-21T06:36:09;18.10;99.90
49777;DHT22;35673;51.482;7.436;2022-08-21T06:38:36;18.20;99.90
49777;DHT22;35673;51.482;7.436;2022-08-21T06:41:02;18.20;99.90
49777;DHT22;35673;51.482;7.436;2022-08-21T06:43:27;18.30;99.90
49777;DHT22;35673;51.482;7.436;2022-08-21T06:45:53;18.30;99.90
49777;DHT22;35673;51.482;7.436;2022-08-21T06:48:18;18.40;99.90
49777;DHT22;35673;51.482;7.436;2022-08-21T06:53:13;18.60;99.90
49777;DHT22;35673;51.482;7.436;2022-08-21T06:55:39;18.60;99.90
49777;DHT22;35673;51.482;7.436;2022-08-21T06:58:06;18.60;99.90
49777;DHT22;35673;51.482;7.436;2022-08-21T07:00:32;18.70;99.90
49777;DHT22;35673;51.482;7.436;2022-08-21T07:02:58;18.80;99.90
49777;DHT22;35673;51.482;7.436;2022-08-21T07:05:29;18.90;99.90
49777;DHT22;35673;51.482;7.436;2022-08-21T07:07:55;19.00;99.90
49777;DHT22;35673;51.482;7.436;2022-08-21T07:10:23;19.00;99.90
49777;DHT22;35673;51.482;7.436;2022-08-21T07:12:49;19.00;99.90
49777;DHT22;35673;51.482;7.436;2022-08-21T07:15:15;19.20;99.90
49777;DHT22;35673;51.482;7.436;2022-08-21T07:17:41;19.30;99.90
49777;DHT22;35673;51.482;7.436;2022-08-21T07:20:07;19.40;99.90
49777;DHT22;35673;51.482;7.436;2022-08-21T07:22:33;19.60;99.90
49777;DHT22;35673;51.482;7.436;2022-08-21T07:25:00;19.80;99.90
49777;DHT22;35673;51.482;7.436;2022-08-21T07:27:26;19.70;99.90
49777;DHT22;35673;51.482;7.436;2022-08-21T07:29:52;19.80;99.90
49777;DHT22;35673;51.482;7.436;2022-08-21T07:32:18;20.00;99.90
49777;DHT22;35673;51.482;7.436;2022-08-21T07:34:43;20.00;99.90
49777;DHT22;35673;51.482;7.436;2022-08-21T07:37:09;20.20;99.90
49777;DHT22;35673;51.482;7.436;2022-08-21T07:39:35;20.30;99.90
49777;DHT22;35673;51.482;7.436;2022-08-21T07:42:01;20.30;99.90
49777;DHT22;35673;51.482;7.436;2022-08-21T07:44:28;20.50;99.90
49777;DHT22;35673;51.482;7.436;2022-08-21T07:46:54;20.70;99.90
49777;DHT22;35673;51.482;7.436;2022-08-21T07:49:19;20.90;98.00
49777;DHT22;35673;51.482;7.436;2022-08-21T07:51:45;21.00;97.00
49777;DHT22;35673;51.482;7.436;2022-08-21T07:54:11;21.00;96.80
49777;DHT22;35673;51.482;7.436;2022-08-21T07:56:36;21.10;96.40
49777;DHT22;35673;51.482;7.436;2022-08-21T07:59:02;21.10;96.00
49777;DHT22;35673;51.482;7.436;2022-08-21T08:01:28;21.20;95.80
49777;DHT22;35673;51.482;7.436;2022-08-21T08:03:53;21.50;94.40
49777;DHT22;35673;51.482;7.436;2022-08-21T08:06:20;21.70;92.60
49777;DHT22;35673;51.482;7.436;2022-08-21T08:08:46;21.60;91.90
49777;DHT22;35673;51.482;7.436;2022-08-21T08:11:12;21.70;91.10
49777;DHT22;35673;51.482;7.436;2022-08-21T08:13:51;21.80;90.90
49777;DHT22;35673;51.482;7.436;2022-08-21T08:16:17;21.80;90.40
49777;DHT22;35673;51.482;7.436;2022-08-21T08:18:44;21.80;90.00
49777;DHT22;35673;51.482;7.436;2022-08-21T08:21:11;21.80;87.80
49777;DHT22;35673;51.482;7.436;2022-08-21T08:23:37;21.80;86.20
49777;DHT22;35673;51.482;7.436;2022-08-21T08:26:03;21.90;87.90
49777;DHT22;35673;51.482;7.436;2022-08-21T08:28:30;22.30;85.50
49777;DHT22;35673;51.482;7.436;2022-08-21T08:30:57;22.40;84.10
49777;DHT22;35673;51.482;7.436;2022-08-21T08:33:23;22.50;80.30
49777;DHT22;35673;51.482;7.436;2022-08-21T08:35:50;22.30;80.30
49777;DHT22;35673;51.482;7.436;2022-08-21T08:38:17;22.40;79.50
49777;DHT22;35673;51.482;7.436;2022-08-21T08:43:14;22.30;77.90
49777;DHT22;35673;51.482;7.436;2022-08-21T08:45:42;22.30;77.90
49777;DHT22;35673;51.482;7.436;2022-08-21T08:48:13;22.30;76.80
49777;DHT22;35673;51.482;7.436;2022-08-21T08:53:08;22.20;75.60
49777;DHT22;35673;51.482;7.436;2022-08-21T08:55:39;22.40;74.60
49777;DHT22;35673;51.482;7.436;2022-08-21T08:58:08;22.60;73.50
49777;DHT22;35673;51.482;7.436;2022-08-21T09:00:35;22.60;72.50
49777;DHT22;35673;51.482;7.436;2022-08-21T09:03:02;22.80;71.80
49777;DHT22;35673;51.482;7.436;2022-08-21T09:06:03;23.00;71.20
49777;DHT22;35673;51.482;7.436;2022-08-21T09:08:54;23.20;70.30
49777;DHT22;35673;51.482;7.436;2022-08-21T09:11:39;23.10;68.30
49777;DHT22;35673;51.482;7.436;2022-08-21T09:17:34;23.00;68.20
49777;DHT22;35673;51.482;7.436;2022-08-21T09:22:43;23.30;67.30
49777;DHT22;35673;51.482;7.436;2022-08-21T09:25:22;23.40;66.80
49777;DHT22;35673;51.482;7.436;2022-08-21T09:27:50;23.60;66.20
49777;DHT22;35673;51.482;7.436;2022-08-21T09:30:17;23.60;66.00
49777;DHT22;35673;51.482;7.436;2022-08-21T09:32:43;23.60;65.30
49777;DHT22;35673;51.482;7.436;2022-08-21T09:35:12;23.60;65.30
49777;DHT22;35673;51.482;7.436;2022-08-21T09:43:05;23.90;64.60
49777;DHT22;35673;51.482;7.436;2022-08-21T09:45:32;23.90;64.80
49777;DHT22;35673;51.482;7.436;2022-08-21T09:48:15;23.80;65.10
49777;DHT22;35673;51.482;7.436;2022-08-21T09:50:43;23.60;64.90
49777;DHT22;35673;51.482;7.436;2022-08-21T09:53:27;23.50;66.00
49777;DHT22;35673;51.482;7.436;2022-08-21T09:55:56;23.20;65.30
49777;DHT22;35673;51.482;7.436;2022-08-21T09:58:44;23.00;66.50
49777;DHT22;35673;51.482;7.436;2022-08-21T10:01:27;22.80;67.00
49777;DHT22;35673;51.482;7.436;2022-08-21T10:04:09;22.90;67.60
49777;DHT22;35673;51.482;7.436;2022-08-21T10:06:35;23.20;67.50
49777;DHT22;35673;51.482;7.436;2022-08-21T10:09:06;23.40;67.20
49777;DHT22;35673;51.482;7.436;2022-08-21T10:11:33;23.50;66.00
49777;DHT22;35673;51.482;7.436;2022-08-21T10:24:28;23.50;66.60
49777;DHT22;35673;51.482;7.436;2022-08-21T10:27:16;23.70;65.20
49777;DHT22;35673;51.482;7.436;2022-08-21T10:29:57;23.50;64.80
49777;DHT22;35673;51.482;7.436;2022-08-21T10:35:37;23.20;65.20
49777;DHT22;35673;51.482;7.436;2022-08-21T10:38:27;23.20;65.20
49777;DHT22;35673;51.482;7.436;2022-08-21T10:44:03;23.40;65.00
49777;DHT22;35673;51.482;7.436;2022-08-21T10:47:01;23.40;65.00
49777;DHT22;35673;51.482;7.436;2022-08-21T10:49:48;23.30;65.30
49777;DHT22;35673;51.482;7.436;2022-08-21T10:55:25;23.60;64.90
49777;DHT22;35673;51.482;7.436;2022-08-21T10:57:59;23.70;64.80
49777;DHT22;35673;51.482;7.436;2022-08-21T11:00:47;23.60;64.00
49777;DHT22;35673;51.482;7.436;2022-08-21T11:03:34;23.60;65.00
49777;DHT22;35673;51.482;7.436;2022-08-21T11:06:14;23.70;64.70
49777;DHT22;35673;51.482;7.436;2022-08-21T11:08:46;23.90;63.20
49777;DHT22;35673;51.482;7.436;2022-08-21T11:11:31;23.90;62.90
49777;DHT22;35673;51.482;7.436;2022-08-21T11:14:13;24.10;62.80
49777;DHT22;35673;51.482;7.436;2022-08-21T11:16:45;24.10;62.50
49777;DHT22;35673;51.482;7.436;2022-08-21T11:19:29;24.10;62.70
49777;DHT22;35673;51.482;7.436;2022-08-21T11:22:06;24.20;63.10
49777;DHT22;35673;51.482;7.436;2022-08-21T11:27:40;24.50;61.80
49777;DHT22;35673;51.482;7.436;2022-08-21T11:30:08;24.60;61.90
49777;DHT22;35673;51.482;7.436;2022-08-21T11:32:43;24.80;60.90
49777;DHT22;35673;51.482;7.436;2022-08-21T11:35:32;24.70;60.90
49777;DHT22;35673;51.482;7.436;2022-08-21T11:38:27;24.60;59.80
49777;DHT22;35673;51.482;7.436;2022-08-21T11:41:28;24.70;60.20
49777;DHT22;35673;51.482;7.436;2022-08-21T11:52:15;24.90;59.10
49777;DHT22;35673;51.482;7.436;2022-08-21T11:54:44;24.90;59.20
49777;DHT22;35673;51.482;7.436;2022-08-21T11:57:21;24.90;59.40
49777;DHT22;35673;51.482;7.436;2022-08-21T11:59:59;25.10;58.80
49777;DHT22;35673;51.482;7.436;2022-08-21T12:02:31;25.10;58.70
49777;DHT22;35673;51.482;7.436;2022-08-21T12:05:06;25.00;57.70
49777;DHT22;35673;51.482;7.436;2022-08-21T12:07:40;25.00;58.30
49777;DHT22;35673;51.482;7.436;2022-08-21T12:10:16;25.00;57.60
49777;DHT22;35673;51.482;7.436;2022-08-21T12:12:44;25.00;58.00
49777;DHT22;35673;51.482;7.436;2022-08-21T12:18:06;25.10;58.00
49777;DHT22;35673;51.482;7.436;2022-08-21T12:20:38;25.20;57.90
49777;DHT22;35673;51.482;7.436;2022-08-21T12:25:47;25.40;58.80
49777;DHT22;35673;51.482;7.436;2022-08-21T12:28:23;25.60;58.30
49777;DHT22;35673;51.482;7.436;2022-08-21T12:30:49;25.60;57.20
49777;DHT22;35673;51.482;7.436;2022-08-21T12:33:19;25.60;57.80
49777;DHT22;35673;51.482;7.436;2022-08-21T12:35:47;25.90;57.20
49777;DHT22;35673;51.482;7.436;2022-08-21T12:38:21;26.00;57.50
49777;DHT22;35673;51.482;7.436;2022-08-21T12:40:55;26.20;56.20
49777;DHT22;35673;51.482;7.436;2022-08-21T12:43:33;26.30;56.70
49777;DHT22;35673;51.482;7.436;2022-08-21T12:45:59;26.40;54.80
49777;DHT22;35673;51.482;7.436;2022-08-21T12:51:06;26.80;54.50
49777;DHT22;35673;51.482;7.436;2022-08-21T12:53:36;26.80;54.40
49777;DHT22;35673;51.482;7.436;2022-08-21T12:56:07;26.80;54.90
49777;DHT22;35673;51.482;7.436;2022-08-21T12:58:34;26.60;55.40
49777;DHT22;35673;51.482;7.436;2022-08-21T13:01:06;26.60;55.90
49777;DHT22;35673;51.482;7.436;2022-08-21T13:03:35;26.90;55.80
49777;DHT22;35673;51.482;7.436;2022-08-21T13:06:03;26.90;54.30
49777;DHT22;35673;51.482;7.436;2022-08-21T13:08:30;26.70;54.40
49777;DHT22;35673;51.482;7.436;2022-08-21T13:11:05;26.70;54.60
49777;DHT22;35673;51.482;7.436;2022-08-21T13:13:33;26.80;55.00
49777;DHT22;35673;51.482;7.436;2022-08-21T13:16:05;27.00;54.10
49777;DHT22;35673;51.482;7.436;2022-08-21T13:18:34;27.10;54.70
49777;DHT22;35673;51.482;7.436;2022-08-21T13:21:18;27.00;54.60
49777;DHT22;35673;51.482;7.436;2022-08-21T13:23:44;27.50;53.60
49777;DHT22;35673;51.482;7.436;2022-08-21T13:26:18;28.10;52.90
49777;DHT22;35673;51.482;7.436;2022-08-21T13:28:44;29.10;49.70
49777;DHT22;35673;51.482;7.436;2022-08-21T13:31:27;30.30;48.70
49777;DHT22;35673;51.482;7.436;2022-08-21T13:33:53;31.40;46.70
49777;DHT22;35673;51.482;7.436;2022-08-21T13:36:40;31.90;46.00
49777;DHT22;35673;51.482;7.436;2022-08-21T13:39:12;31.70;45.30
49777;DHT22;35673;51.482;7.436;2022-08-21T13:41:43;30.70;45.90
49777;DHT22;35673;51.482;7.436;2022-08-21T13:44:22;30.20;46.80
49777;DHT22;35673;51.482;7.436;2022-08-21T13:46:52;31.80;46.30
49777;DHT22;35673;51.482;7.436;2022-08-21T13:49:20;33.30;44.50
49777;DHT22;35673;51.482;7.436;2022-08-21T13:51:47;34.00;43.60
49777;DHT22;35673;51.482;7.436;2022-08-21T13:54:23;34.60;42.90
49777;DHT22;35673;51.482;7.436;2022-08-21T13:56:50;34.50;41.80
49777;DHT22;35673;51.482;7.436;2022-08-21T13:59:45;34.50;42.50
49777;DHT22;35673;51.482;7.436;2022-08-21T14:02:17;35.10;42.60
49777;DHT22;35673;51.482;7.436;2022-08-21T14:05:16;35.60;42.50
49777;DHT22;35673;51.482;7.436;2022-08-21T14:07:44;35.80;41.40
49777;DHT22;35673;51.482;7.436;2022-08-21T14:10:20;34.50;41.90
49777;DHT22;35673;51.482;7.436;2022-08-21T14:12:52;33.90;42.90
49777;DHT22;35673;51.482;7.436;2022-08-21T14:15:24;33.70;42.20
49777;DHT22;35673;51.482;7.436;2022-08-21T14:17:50;32.80;42.80
49777;DHT22;35673;51.482;7.436;2022-08-21T14:20:31;32.20;43.40
49777;DHT22;35673;51.482;7.436;2022-08-21T14:22:58;34.10;43.60
49777;DHT22;35673;51.482;7.436;2022-08-21T14:27:57;36.30;41.70
49777;DHT22;35673;51.482;7.436;2022-08-21T14:30:28;36.90;40.80
49777;DHT22;35673;51.482;7.436;2022-08-21T14:32:54;36.00;41.20
49777;DHT22;35673;51.482;7.436;2022-08-21T14:35:20;35.20;41.30
49777;DHT22;35673;51.482;7.436;2022-08-21T14:37:48;34.00;42.00
49777;DHT22;35673;51.482;7.436;2022-08-21T14:40:16;32.60;43.20
49777;DHT22;35673;51.482;7.436;2022-08-21T14:42:43;32.40;43.80
49777;DHT22;35673;51.482;7.436;2022-08-21T14:45:29;32.80;43.70
49777;DHT22;35673;51.482;7.436;2022-08-21T14:47:56;34.40;42.70
49777;DHT22;35673;51.482;7.436;2022-08-21T14:50:23;34.10;42.50
49777;DHT22;35673;51.482;7.436;2022-08-21T14:52:48;33.00;42.80
49777;DHT22;35673;51.482;7.436;2022-08-21T14:55:16;32.00;43.70
49777;DHT22;35673;51.482;7.436;2022-08-21T14:57:47;31.10;45.00
49777;DHT22;35673;51.482;7.436;2022-08-21T15:00:17;30.40;45.50
49777;DHT22;35673;51.482;7.436;2022-08-21T15:02:44;30.00;46.10
49777;DHT22;35673;51.482;7.436;2022-08-21T15:05:10;29.60;46.70
49777;DHT22;35673;51.482;7.436;2022-08-21T15:07:36;29.20;47.20
49777;DHT22;35673;51.482;7.436;2022-08-21T15:10:03;29.10;47.40
49777;DHT22;35673;51.482;7.436;2022-08-21T15:12:29;28.90;48.00
49777;DHT22;35673;51.482;7.436;2022-08-21T15:14:55;28.70;48.80
49777;DHT22;35673;51.482;7.436;2022-08-21T15:17:21;28.60;48.70
49777;DHT22;35673;51.482;7.436;2022-08-21T15:19:46;28.60;49.20
49777;DHT22;35673;51.482;7.436;2022-08-21T15:22:13;28.50;49.30
49777;DHT22;35673;51.482;7.436;2022-08-21T15:24:39;28.50;49.40
49777;DHT22;35673;51.482;7.436;2022-08-21T15:27:06;28.50;49.50
49777;DHT22;35673;51.482;7.436;2022-08-21T15:29:32;28.40;49.80
49777;DHT22;35673;51.482;7.436;2022-08-21T15:32:01;28.20;49.90
49777;DHT22;35673;51.482;7.436;2022-08-21T15:34:29;28.30;50.20
49777;DHT22;35673;51.482;7.436;2022-08-21T15:36:56;28.70;50.10
49777;DHT22;35673;51.482;7.436;2022-08-21T15:39:24;29.90;48.90
49777;DHT22;35673;51.482;7.436;2022-08-21T15:41:49;30.90;47.30
49777;DHT22;35673;51.482;7.436;2022-08-21T15:44:15;31.60;46.60
49777;DHT22;35673;51.482;7.436;2022-08-21T15:46:41;32.00;46.20
49777;DHT22;35673;51.482;7.436;2022-08-21T15:49:07;31.70;45.90
49777;DHT22;35673;51.482;7.436;2022-08-21T15:51:34;31.20;46.10
49777;DHT22;35673;51.482;7.436;2022-08-21T15:54:00;31.00;46.40
49777;DHT22;35673;51.482;7.436;2022-08-21T15:56:34;30.90;46.10
49777;DHT22;35673;51.482;7.436;2022-08-21T15:59:06;30.60;46.10
49777;DHT22;35673;51.482;7.436;2022-08-21T16:01:33;30.40;46.60
49777;DHT22;35673;51.482;7.436;2022-08-21T16:03:59;30.90;46.30
49777;DHT22;35673;51.482;7.436;2022-08-21T16:06:25;31.20;45.80
49777;DHT22;35673;51.482;7.436;2022-08-21T16:08:50;31.00;45.70
49777;DHT22;35673;51.482;7.436;2022-08-21T16:11:16;30.80;45.90
49777;DHT22;35673;51.482;7.436;2022-08-21T16:13:44;30.40;46.10
49777;DHT22;35673;51.482;7.436;2022-08-21T16:16:16;29.80;46.50
49777;DHT22;35673;51.482;7.436;2022-08-21T16:18:42;29.40;47.30
49777;DHT22;35673;51.482;7.436;2022-08-21T16:21:07;29.40;47.50
49777;DHT22;35673;51.482;7.436;2022-08-21T16:23:34;29.30;47.70
49777;DHT22;35673;51.482;7.436;2022-08-21T16:26:05;29.00;48.30
49777;DHT22;35673;51.482;7.436;2022-08-21T16:28:33;28.90;48.70
49777;DHT22;35673;51.482;7.436;2022-08-21T16:31:01;28.90;48.90
49777;DHT22;35673;51.482;7.436;2022-08-21T16:36:01;29.50;48.10
49777;DHT22;35673;51.482;7.436;2022-08-21T16:38:28;29.90;47.80
49777;DHT22;35673;51.482;7.436;2022-08-21T16:40:54;30.10;47.60
49777;DHT22;35673;51.482;7.436;2022-08-21T16:43:23;30.50;47.30
49777;DHT22;35673;51.482;7.436;2022-08-21T16:45:49;30.70;47.00
49777;DHT22;35673;51.482;7.436;2022-08-21T16:48:15;31.00;46.90
49777;DHT22;35673;51.482;7.436;2022-08-21T16:50:41;32.70;45.80